Mingus, TX (76463)

6:15 PM CDT on August 30, 2015 (GMT -0500)
Santo, TX | | Change Station
CLOSE
Current Station
Personal Weather Station
Location: Santo, TX
Elevation: 866 ft
Nearby Weather Stations

Elev 866 ft 32.64 °N, 98.22 °W | Updated 14 minutes ago

Partly Cloudy
Partly Cloudy
95.9 °F
Feels Like 99 °F
N
2.2
Wind Variable Wind from West

Today
High -- | Low -- °F
--% Chance of Precip.
Yesterday
High -- | Low -- °F
Precip. -- in
7:07 AM 8:01 PM
Full, 98% visible
Pressure 29.88 in
Visibility 10.0 miles
Clouds Clear
Heat Index 99 °F
Dew Point 65 °F
Humidity 37%
Rainfall 0.00 in
Snow Depth Not available.
UV 2 out of 12
Pollen 8.70 out of 12
Air Quality Not available.
Flu Activity Not available.
METAR KMWL 302253Z AUTO 00000KT 10SM CLR 33/17 A2992 RMK AO2 SLP117 T03280167
Pressure 29.88 in
Visibility 10.0 miles
Clouds Clear
Heat Index 99 °F
Dew Point 65 °F
Humidity 37%
Rainfall 0.00 in
Snow Depth Not available.
UV 2 out of 12
Pollen 8.70 out of 12
Air Quality Not available.
Flu Activity Not available.
METAR KMWL 302253Z AUTO 00000KT 10SM CLR 33/17 A2992 RMK AO2 SLP117 T03280167
Nowcast | as of 6:13 PM CDT on August 30, 2015

Isolated thunderstorms are possible generally along and south of I-30...and east of I-35...through the evening hours. At 6 PM...the strongest storms were located east of The Temple area and were moving little. Brief heavy rain and gusty winds can be expected in the stronger storms.

×

10-Day Weather Forecast

×

Almanac

Astronomy

Aug. 30, 2015 Rise Set
Actual Time
Civil Twilight
Nautical Twilight
Astronomical Twilight
Moon
Length of Visible Light
Length of Day
Tomorrow will be .
, % of the Moon is Illuminated

Today's Extremes

State Highs State Lows

Community

WunderPhotos

Upload Photos

1,851,088 photos uploaded!

WunderBlogs® & News

Nearby

Air Quality

  Air Quality AQ Index Pollutant
Not available.

Snow Depth

Station Depth Elevation

Earthquake Activity

City Distance Mag. Time & Date
Minimum magnitude displayed is 2.5.

Coastal Water Temperatures

Place Temperature

Stations

Nearby Weather Stations

Station Location Temp. Windchill Dew Point Humidity Wind Precip. Elev Updated Type